sensor_id;sensor_type;location;lat;lon;timestamp;P1;durP1;ratioP1;P2;durP2;ratioP2
84893;SDS011;75409;50.000;9.432;2024-02-16T00:00:49;9.73;;;6.37;;
84893;SDS011;75409;50.000;9.432;2024-02-16T00:03:14;12.87;;;6.47;;
84893;SDS011;75409;50.000;9.432;2024-02-16T00:05:39;10.32;;;5.30;;
84893;SDS011;75409;50.000;9.432;2024-02-16T00:08:05;12.37;;;5.80;;
84893;SDS011;75409;50.000;9.432;2024-02-16T00:10:30;10.87;;;5.63;;
84893;SDS011;75409;50.000;9.432;2024-02-16T00:12:56;15.63;;;9.67;;
84893;SDS011;75409;50.000;9.432;2024-02-16T00:15:21;11.40;;;7.53;;
84893;SDS011;75409;50.000;9.432;2024-02-16T00:17:47;12.95;;;7.10;;
84893;SDS011;75409;50.000;9.432;2024-02-16T00:20:13;15.55;;;7.97;;
84893;SDS011;75409;50.000;9.432;2024-02-16T00:22:38;11.82;;;7.55;;
84893;SDS011;75409;50.000;9.432;2024-02-16T00:25:03;12.73;;;6.90;;
84893;SDS011;75409;50.000;9.432;2024-02-16T00:27:29;10.75;;;6.25;;
84893;SDS011;75409;50.000;9.432;2024-02-16T00:29:54;11.70;;;7.47;;
84893;SDS011;75409;50.000;9.432;2024-02-16T00:32:20;12.43;;;6.90;;
84893;SDS011;75409;50.000;9.432;2024-02-16T00:34:45;11.07;;;6.43;;
84893;SDS011;75409;50.000;9.432;2024-02-16T00:37:11;9.93;;;7.28;;
84893;SDS011;75409;50.000;9.432;2024-02-16T00:39:39;12.82;;;6.68;;
84893;SDS011;75409;50.000;9.432;2024-02-16T00:42:07;11.55;;;6.13;;
84893;SDS011;75409;50.000;9.432;2024-02-16T00:44:32;12.32;;;4.93;;
84893;SDS011;75409;50.000;9.432;2024-02-16T00:46:57;9.70;;;5.60;;
84893;SDS011;75409;50.000;9.432;2024-02-16T00:49:23;11.83;;;5.77;;
84893;SDS011;75409;50.000;9.432;2024-02-16T00:51:48;12.63;;;6.88;;
84893;SDS011;75409;50.000;9.432;2024-02-16T00:54:15;12.80;;;6.45;;
84893;SDS011;75409;50.000;9.432;2024-02-16T00:56:40;8.55;;;5.25;;
84893;SDS011;75409;50.000;9.432;2024-02-16T00:59:06;10.50;;;5.53;;
84893;SDS011;75409;50.000;9.432;2024-02-16T01:01:33;8.13;;;5.25;;
84893;SDS011;75409;50.000;9.432;2024-02-16T01:04:00;9.75;;;4.78;;
84893;SDS011;75409;50.000;9.432;2024-02-16T01:06:25;8.45;;;4.88;;
84893;SDS011;75409;50.000;9.432;2024-02-16T01:08:51;10.53;;;5.77;;
84893;SDS011;75409;50.000;9.432;2024-02-16T01:11:16;11.43;;;6.30;;
84893;SDS011;75409;50.000;9.432;2024-02-16T01:13:41;9.15;;;5.80;;
84893;SDS011;75409;50.000;9.432;2024-02-16T01:16:08;7.85;;;5.13;;
84893;SDS011;75409;50.000;9.432;2024-02-16T01:18:34;8.40;;;4.95;;
84893;SDS011;75409;50.000;9.432;2024-02-16T01:21:01;7.78;;;5.28;;
84893;SDS011;75409;50.000;9.432;2024-02-16T01:23:28;10.50;;;5.47;;
84893;SDS011;75409;50.000;9.432;2024-02-16T01:25:53;8.30;;;4.83;;
84893;SDS011;75409;50.000;9.432;2024-02-16T01:28:18;8.50;;;5.30;;
84893;SDS011;75409;50.000;9.432;2024-02-16T01:30:44;9.77;;;5.67;;
84893;SDS011;75409;50.000;9.432;2024-02-16T01:33:09;9.93;;;5.90;;
84893;SDS011;75409;50.000;9.432;2024-02-16T01:35:35;9.45;;;5.00;;
84893;SDS011;75409;50.000;9.432;2024-02-16T01:38:00;11.73;;;5.88;;
84893;SDS011;75409;50.000;9.432;2024-02-16T01:40:29;8.35;;;5.05;;
84893;SDS011;75409;50.000;9.432;2024-02-16T01:42:54;8.75;;;5.00;;
84893;SDS011;75409;50.000;9.432;2024-02-16T01:45:20;7.90;;;5.13;;
84893;SDS011;75409;50.000;9.432;2024-02-16T01:47:45;8.00;;;5.60;;
84893;SDS011;75409;50.000;9.432;2024-02-16T01:50:14;8.27;;;4.65;;
84893;SDS011;75409;50.000;9.432;2024-02-16T01:52:40;12.02;;;5.38;;
84893;SDS011;75409;50.000;9.432;2024-02-16T01:55:05;8.45;;;4.63;;
84893;SDS011;75409;50.000;9.432;2024-02-16T01:57:35;12.38;;;4.60;;
84893;SDS011;75409;50.000;9.432;2024-02-16T02:00:00;9.18;;;5.03;;
84893;SDS011;75409;50.000;9.432;2024-02-16T02:02:26;8.67;;;5.03;;
84893;SDS011;75409;50.000;9.432;2024-02-16T02:04:51;8.93;;;4.68;;
84893;SDS011;75409;50.000;9.432;2024-02-16T02:07:17;7.78;;;4.63;;
84893;SDS011;75409;50.000;9.432;2024-02-16T02:09:42;8.03;;;4.70;;
84893;SDS011;75409;50.000;9.432;2024-02-16T02:12:08;7.40;;;5.03;;
84893;SDS011;75409;50.000;9.432;2024-02-16T02:14:34;8.20;;;4.90;;
84893;SDS011;75409;50.000;9.432;2024-02-16T02:16:59;9.57;;;5.50;;
84893;SDS011;75409;50.000;9.432;2024-02-16T02:19:25;7.53;;;4.43;;
84893;SDS011;75409;50.000;9.432;2024-02-16T02:21:51;8.40;;;4.57;;
84893;SDS011;75409;50.000;9.432;2024-02-16T02:24:16;7.93;;;5.30;;
84893;SDS011;75409;50.000;9.432;2024-02-16T02:26:42;8.65;;;5.07;;
84893;SDS011;75409;50.000;9.432;2024-02-16T02:29:07;10.57;;;4.97;;
84893;SDS011;75409;50.000;9.432;2024-02-16T02:31:32;10.27;;;5.00;;
84893;SDS011;75409;50.000;9.432;2024-02-16T02:33:58;8.77;;;5.23;;
84893;SDS011;75409;50.000;9.432;2024-02-16T02:36:23;9.03;;;4.93;;
84893;SDS011;75409;50.000;9.432;2024-02-16T02:38:48;10.07;;;5.70;;
84893;SDS011;75409;50.000;9.432;2024-02-16T02:41:14;10.57;;;5.00;;
84893;SDS011;75409;50.000;9.432;2024-02-16T02:43:42;9.32;;;5.90;;
84893;SDS011;75409;50.000;9.432;2024-02-16T02:46:07;8.13;;;6.23;;
84893;SDS011;75409;50.000;9.432;2024-02-16T02:48:33;7.87;;;5.33;;
84893;SDS011;75409;50.000;9.432;2024-02-16T02:50:58;6.95;;;4.35;;
84893;SDS011;75409;50.000;9.432;2024-02-16T02:53:26;6.18;;;4.15;;
84893;SDS011;75409;50.000;9.432;2024-02-16T02:55:53;7.78;;;4.20;;
84893;SDS011;75409;50.000;9.432;2024-02-16T02:58:18;8.20;;;4.73;;
84893;SDS011;75409;50.000;9.432;2024-02-16T03:00:43;8.43;;;4.07;;
84893;SDS011;75409;50.000;9.432;2024-02-16T03:03:09;8.10;;;4.03;;
84893;SDS011;75409;50.000;9.432;2024-02-16T03:05:35;7.00;;;4.82;;
84893;SDS011;75409;50.000;9.432;2024-02-16T03:08:00;7.13;;;4.33;;
84893;SDS011;75409;50.000;9.432;2024-02-16T03:10:26;6.65;;;4.75;;
84893;SDS011;75409;50.000;9.432;2024-02-16T03:12:52;8.25;;;4.93;;
84893;SDS011;75409;50.000;9.432;2024-02-16T03:15:18;6.65;;;5.13;;
84893;SDS011;75409;50.000;9.432;2024-02-16T03:17:44;8.75;;;4.63;;
84893;SDS011;75409;50.000;9.432;2024-02-16T03:20:09;9.80;;;4.80;;
84893;SDS011;75409;50.000;9.432;2024-02-16T03:22:34;8.80;;;4.70;;
84893;SDS011;75409;50.000;9.432;2024-02-16T03:25:00;7.53;;;4.18;;
84893;SDS011;75409;50.000;9.432;2024-02-16T03:27:25;7.87;;;4.77;;
84893;SDS011;75409;50.000;9.432;2024-02-16T03:29:50;8.13;;;4.93;;
84893;SDS011;75409;50.000;9.432;2024-02-16T03:32:16;7.85;;;4.97;;
84893;SDS011;75409;50.000;9.432;2024-02-16T03:34:42;7.80;;;4.72;;
84893;SDS011;75409;50.000;9.432;2024-02-16T03:37:07;9.20;;;4.65;;
84893;SDS011;75409;50.000;9.432;2024-02-16T03:39:33;7.25;;;4.68;;
84893;SDS011;75409;50.000;9.432;2024-02-16T03:41:58;7.40;;;4.20;;
84893;SDS011;75409;50.000;9.432;2024-02-16T03:44:24;7.32;;;4.60;;
84893;SDS011;75409;50.000;9.432;2024-02-16T03:46:49;6.57;;;4.90;;
84893;SDS011;75409;50.000;9.432;2024-02-16T03:49:15;6.25;;;4.53;;
84893;SDS011;75409;50.000;9.432;2024-02-16T03:51:40;6.97;;;4.45;;
84893;SDS011;75409;50.000;9.432;2024-02-16T03:54:06;6.28;;;4.68;;
84893;SDS011;75409;50.000;9.432;2024-02-16T03:56:32;7.97;;;4.88;;
84893;SDS011;75409;50.000;9.432;2024-02-16T03:58:57;9.65;;;5.25;;
84893;SDS011;75409;50.000;9.432;2024-02-16T04:01:23;8.32;;;4.20;;
84893;SDS011;75409;50.000;9.432;2024-02-16T04:03:48;6.33;;;4.93;;
84893;SDS011;75409;50.000;9.432;2024-02-16T04:06:14;9.63;;;4.63;;
84893;SDS011;75409;50.000;9.432;2024-02-16T04:08:39;6.60;;;3.83;;
84893;SDS011;75409;50.000;9.432;2024-02-16T04:11:04;7.55;;;4.10;;
84893;SDS011;75409;50.000;9.432;2024-02-16T04:13:30;7.90;;;4.63;;
84893;SDS011;75409;50.000;9.432;2024-02-16T04:15:57;6.43;;;4.07;;
84893;SDS011;75409;50.000;9.432;2024-02-16T04:18:22;11.45;;;4.10;;
84893;SDS011;75409;50.000;9.432;2024-02-16T04:20:48;8.70;;;3.90;;
84893;SDS011;75409;50.000;9.432;2024-02-16T04:23:13;5.43;;;3.40;;
84893;SDS011;75409;50.000;9.432;2024-02-16T04:25:38;10.30;;;4.50;;
84893;SDS011;75409;50.000;9.432;2024-02-16T04:28:04;6.20;;;3.93;;
84893;SDS011;75409;50.000;9.432;2024-02-16T04:30:29;6.07;;;3.80;;
84893;SDS011;75409;50.000;9.432;2024-02-16T04:32:55;11.32;;;4.40;;
84893;SDS011;75409;50.000;9.432;2024-02-16T04:35:20;7.45;;;3.97;;
84893;SDS011;75409;50.000;9.432;2024-02-16T04:37:45;21.92;;;8.10;;
84893;SDS011;75409;50.000;9.432;2024-02-16T04:40:11;7.30;;;4.40;;
84893;SDS011;75409;50.000;9.432;2024-02-16T04:42:39;8.95;;;5.15;;
84893;SDS011;75409;50.000;9.432;2024-02-16T04:45:10;8.73;;;4.63;;
84893;SDS011;75409;50.000;9.432;2024-02-16T04:47:36;9.07;;;5.28;;
84893;SDS011;75409;50.000;9.432;2024-02-16T04:50:01;9.43;;;5.30;;
84893;SDS011;75409;50.000;9.432;2024-02-16T04:52:28;9.07;;;4.15;;
84893;SDS011;75409;50.000;9.432;2024-02-16T04:54:53;5.18;;;4.13;;
84893;SDS011;75409;50.000;9.432;2024-02-16T04:57:18;7.97;;;4.57;;
84893;SDS011;75409;50.000;9.432;2024-02-16T04:59:44;10.57;;;5.07;;
84893;SDS011;75409;50.000;9.432;2024-02-16T05:02:09;6.65;;;4.97;;
84893;SDS011;75409;50.000;9.432;2024-02-16T05:04:35;7.55;;;5.18;;
84893;SDS011;75409;50.000;9.432;2024-02-16T05:07:01;7.85;;;5.03;;
84893;SDS011;75409;50.000;9.432;2024-02-16T05:09:27;8.20;;;5.40;;
84893;SDS011;75409;50.000;9.432;2024-02-16T05:11:52;28.50;;;4.90;;
84893;SDS011;75409;50.000;9.432;2024-02-16T05:14:17;6.77;;;4.77;;
84893;SDS011;75409;50.000;9.432;2024-02-16T05:16:46;7.85;;;4.72;;
84893;SDS011;75409;50.000;9.432;2024-02-16T05:19:11;6.35;;;4.43;;
84893;SDS011;75409;50.000;9.432;2024-02-16T05:21:37;6.88;;;4.50;;
84893;SDS011;75409;50.000;9.432;2024-02-16T05:24:02;5.00;;;3.50;;
84893;SDS011;75409;50.000;9.432;2024-02-16T05:26:28;6.43;;;4.70;;
84893;SDS011;75409;50.000;9.432;2024-02-16T05:28:53;6.95;;;4.03;;
84893;SDS011;75409;50.000;9.432;2024-02-16T05:31:18;6.67;;;3.83;;
84893;SDS011;75409;50.000;9.432;2024-02-16T05:33:44;7.07;;;3.65;;
84893;SDS011;75409;50.000;9.432;2024-02-16T05:36:20;8.05;;;3.90;;
84893;SDS011;75409;50.000;9.432;2024-02-16T05:38:49;6.63;;;3.65;;
84893;SDS011;75409;50.000;9.432;2024-02-16T05:41:17;8.87;;;3.20;;
84893;SDS011;75409;50.000;9.432;2024-02-16T05:43:43;4.35;;;3.15;;
84893;SDS011;75409;50.000;9.432;2024-02-16T05:46:16;6.38;;;3.30;;
84893;SDS011;75409;50.000;9.432;2024-02-16T05:48:42;7.57;;;4.22;;
84893;SDS011;75409;50.000;9.432;2024-02-16T05:51:08;10.30;;;5.85;;
84893;SDS011;75409;50.000;9.432;2024-02-16T05:53:33;9.75;;;4.25;;
84893;SDS011;75409;50.000;9.432;2024-02-16T05:55:59;6.93;;;4.30;;
84893;SDS011;75409;50.000;9.432;2024-02-16T05:58:25;7.22;;;4.35;;
84893;SDS011;75409;50.000;9.432;2024-02-16T06:00:50;9.10;;;4.38;;
84893;SDS011;75409;50.000;9.432;2024-02-16T06:03:15;7.53;;;4.85;;
84893;SDS011;75409;50.000;9.432;2024-02-16T06:05:41;12.27;;;7.53;;
84893;SDS011;75409;50.000;9.432;2024-02-16T06:08:09;15.00;;;8.98;;
84893;SDS011;75409;50.000;9.432;2024-02-16T06:10:35;16.05;;;8.80;;
84893;SDS011;75409;50.000;9.432;2024-02-16T06:13:00;13.77;;;6.90;;
84893;SDS011;75409;50.000;9.432;2024-02-16T06:15:25;11.10;;;5.50;;
84893;SDS011;75409;50.000;9.432;2024-02-16T06:17:51;28.40;;;12.13;;
84893;SDS011;75409;50.000;9.432;2024-02-16T06:20:17;18.52;;;8.85;;
84893;SDS011;75409;50.000;9.432;2024-02-16T06:22:42;26.55;;;12.43;;
84893;SDS011;75409;50.000;9.432;2024-02-16T06:25:08;14.40;;;6.87;;
84893;SDS011;75409;50.000;9.432;2024-02-16T06:27:34;11.13;;;6.15;;
84893;SDS011;75409;50.000;9.432;2024-02-16T06:29:59;12.93;;;5.47;;
84893;SDS011;75409;50.000;9.432;2024-02-16T06:32:25;11.73;;;5.30;;
84893;SDS011;75409;50.000;9.432;2024-02-16T06:34:51;9.10;;;5.35;;
84893;SDS011;75409;50.000;9.432;2024-02-16T06:37:17;9.93;;;5.40;;
84893;SDS011;75409;50.000;9.432;2024-02-16T06:39:43;8.33;;;4.67;;
84893;SDS011;75409;50.000;9.432;2024-02-16T06:42:08;10.13;;;5.72;;
84893;SDS011;75409;50.000;9.432;2024-02-16T06:44:36;10.02;;;5.75;;
84893;SDS011;75409;50.000;9.432;2024-02-16T06:47:01;27.27;;;14.80;;
84893;SDS011;75409;50.000;9.432;2024-02-16T06:49:26;24.70;;;14.17;;
84893;SDS011;75409;50.000;9.432;2024-02-16T06:51:52;28.80;;;14.03;;
84893;SDS011;75409;50.000;9.432;2024-02-16T06:54:17;23.70;;;11.88;;
84893;SDS011;75409;50.000;9.432;2024-02-16T06:56:42;19.90;;;9.80;;
84893;SDS011;75409;50.000;9.432;2024-02-16T06:59:09;16.05;;;8.07;;
84893;SDS011;75409;50.000;9.432;2024-02-16T07:01:34;17.63;;;8.50;;
84893;SDS011;75409;50.000;9.432;2024-02-16T07:03:59;16.90;;;8.53;;
84893;SDS011;75409;50.000;9.432;2024-02-16T07:06:26;21.80;;;11.63;;
84893;SDS011;75409;50.000;9.432;2024-02-16T07:08:52;23.93;;;12.67;;
84893;SDS011;75409;50.000;9.432;2024-02-16T07:11:17;27.67;;;13.67;;
84893;SDS011;75409;50.000;9.432;2024-02-16T07:13:43;24.02;;;13.20;;
84893;SDS011;75409;50.000;9.432;2024-02-16T07:16:08;20.60;;;12.35;;
84893;SDS011;75409;50.000;9.432;2024-02-16T07:18:34;18.10;;;11.07;;
84893;SDS011;75409;50.000;9.432;2024-02-16T07:20:59;15.57;;;11.20;;
84893;SDS011;75409;50.000;9.432;2024-02-16T07:23:25;19.85;;;10.65;;
84893;SDS011;75409;50.000;9.432;2024-02-16T07:25:51;16.92;;;9.65;;
84893;SDS011;75409;50.000;9.432;2024-02-16T07:28:16;37.28;;;17.60;;
84893;SDS011;75409;50.000;9.432;2024-02-16T07:30:42;30.75;;;17.02;;
84893;SDS011;75409;50.000;9.432;2024-02-16T07:33:07;23.10;;;11.93;;
84893;SDS011;75409;50.000;9.432;2024-02-16T07:35:36;15.55;;;10.52;;
84893;SDS011;75409;50.000;9.432;2024-02-16T07:38:03;14.95;;;9.20;;
84893;SDS011;75409;50.000;9.432;2024-02-16T07:40:28;17.88;;;9.68;;
84893;SDS011;75409;50.000;9.432;2024-02-16T07:42:54;13.63;;;8.75;;
84893;SDS011;75409;50.000;9.432;2024-02-16T07:45:19;13.90;;;8.57;;
84893;SDS011;75409;50.000;9.432;2024-02-16T07:47:45;11.95;;;8.15;;
84893;SDS011;75409;50.000;9.432;2024-02-16T07:50:10;22.92;;;13.02;;
84893;SDS011;75409;50.000;9.432;2024-02-16T07:52:37;17.38;;;11.30;;
84893;SDS011;75409;50.000;9.432;2024-02-16T07:55:03;13.90;;;10.55;;
84893;SDS011;75409;50.000;9.432;2024-02-16T07:57:29;22.13;;;11.60;;
84893;SDS011;75409;50.000;9.432;2024-02-16T07:59:55;22.38;;;12.43;;
84893;SDS011;75409;50.000;9.432;2024-02-16T08:02:21;20.25;;;12.20;;
84893;SDS011;75409;50.000;9.432;2024-02-16T08:04:47;19.57;;;11.80;;
84893;SDS011;75409;50.000;9.432;2024-02-16T08:07:13;21.85;;;13.18;;
84893;SDS011;75409;50.000;9.432;2024-02-16T08:09:38;25.33;;;15.10;;
84893;SDS011;75409;50.000;9.432;2024-02-16T08:12:04;24.58;;;14.15;;
84893;SDS011;75409;50.000;9.432;2024-02-16T08:14:31;27.35;;;15.80;;
84893;SDS011;75409;50.000;9.432;2024-02-16T08:16:58;27.45;;;13.40;;
84893;SDS011;75409;50.000;9.432;2024-02-16T08:19:23;23.25;;;14.57;;
84893;SDS011;75409;50.000;9.432;2024-02-16T08:21:48;19.87;;;12.90;;
84893;SDS011;75409;50.000;9.432;2024-02-16T08:24:14;30.20;;;16.70;;
84893;SDS011;75409;50.000;9.432;2024-02-16T08:26:39;23.23;;;15.13;;
84893;SDS011;75409;50.000;9.432;2024-02-16T08:29:04;23.95;;;14.38;;
84893;SDS011;75409;50.000;9.432;2024-02-16T08:31:30;19.63;;;11.80;;
84893;SDS011;75409;50.000;9.432;2024-02-16T08:33:55;21.60;;;12.57;;
84893;SDS011;75409;50.000;9.432;2024-02-16T08:36:20;16.90;;;11.63;;
84893;SDS011;75409;50.000;9.432;2024-02-16T08:38:52;19.08;;;15.50;;
84893;SDS011;75409;50.000;9.432;2024-02-16T08:41:19;18.50;;;11.52;;
84893;SDS011;75409;50.000;9.432;2024-02-16T08:43:44;14.82;;;11.20;;
84893;SDS011;75409;50.000;9.432;2024-02-16T08:46:09;16.05;;;11.23;;
84893;SDS011;75409;50.000;9.432;2024-02-16T08:48:35;14.23;;;11.33;;
84893;SDS011;75409;50.000;9.432;2024-02-16T08:51:00;14.35;;;9.52;;
84893;SDS011;75409;50.000;9.432;2024-02-16T08:53:26;14.73;;;10.00;;
84893;SDS011;75409;50.000;9.432;2024-02-16T08:55:51;16.42;;;10.68;;
84893;SDS011;75409;50.000;9.432;2024-02-16T08:58:16;16.38;;;11.10;;
84893;SDS011;75409;50.000;9.432;2024-02-16T09:00:43;15.45;;;11.25;;
84893;SDS011;75409;50.000;9.432;2024-02-16T09:03:09;17.48;;;13.48;;
84893;SDS011;75409;50.000;9.432;2024-02-16T09:05:34;14.30;;;11.27;;
84893;SDS011;75409;50.000;9.432;2024-02-16T09:11:08;15.52;;;11.73;;
84893;SDS011;75409;50.000;9.432;2024-02-16T09:13:34;13.55;;;10.25;;
84893;SDS011;75409;50.000;9.432;2024-02-16T09:16:01;11.50;;;6.07;;
84893;SDS011;75409;50.000;9.432;2024-02-16T09:18:28;12.35;;;8.50;;
84893;SDS011;75409;50.000;9.432;2024-02-16T09:20:53;21.20;;;12.15;;
84893;SDS011;75409;50.000;9.432;2024-02-16T09:23:19;21.52;;;12.65;;
84893;SDS011;75409;50.000;9.432;2024-02-16T09:25:44;22.35;;;13.60;;
84893;SDS011;75409;50.000;9.432;2024-02-16T09:28:11;18.88;;;12.68;;
84893;SDS011;75409;50.000;9.432;2024-02-16T09:30:37;16.67;;;11.50;;
84893;SDS011;75409;50.000;9.432;2024-02-16T09:33:02;15.25;;;10.40;;
84893;SDS011;75409;50.000;9.432;2024-02-16T09:35:28;16.67;;;10.77;;
84893;SDS011;75409;50.000;9.432;2024-02-16T09:37:53;22.90;;;15.80;;
84893;SDS011;75409;50.000;9.432;2024-02-16T09:40:19;20.50;;;14.10;;
84893;SDS011;75409;50.000;9.432;2024-02-16T09:42:47;12.80;;;9.00;;
84893;SDS011;75409;50.000;9.432;2024-02-16T09:45:14;9.27;;;5.90;;
84893;SDS011;75409;50.000;9.432;2024-02-16T09:47:41;8.52;;;5.50;;
84893;SDS011;75409;50.000;9.432;2024-02-16T09:53:30;8.82;;;5.78;;
84893;SDS011;75409;50.000;9.432;2024-02-16T09:55:55;9.52;;;5.80;;
84893;SDS011;75409;50.000;9.432;2024-02-16T09:58:21;7.18;;;5.32;;
84893;SDS011;75409;50.000;9.432;2024-02-16T10:00:51;9.15;;;5.72;;
84893;SDS011;75409;50.000;9.432;2024-02-16T10:03:27;9.48;;;5.60;;
84893;SDS011;75409;50.000;9.432;2024-02-16T10:06:07;12.95;;;9.52;;
84893;SDS011;75409;50.000;9.432;2024-02-16T10:11:22;8.90;;;6.35;;
84893;SDS011;75409;50.000;9.432;2024-02-16T10:13:55;9.15;;;6.10;;
84893;SDS011;75409;50.000;9.432;2024-02-16T10:16:24;11.50;;;6.80;;
84893;SDS011;75409;50.000;9.432;2024-02-16T10:18:50;8.88;;;6.15;;
84893;SDS011;75409;50.000;9.432;2024-02-16T10:21:24;10.18;;;6.57;;
84893;SDS011;75409;50.000;9.432;2024-02-16T10:24:01;13.68;;;7.70;;
84893;SDS011;75409;50.000;9.432;2024-02-16T10:26:33;19.33;;;9.35;;
84893;SDS011;75409;50.000;9.432;2024-02-16T10:29:03;9.20;;;6.82;;
84893;SDS011;75409;50.000;9.432;2024-02-16T10:31:30;11.27;;;7.30;;
84893;SDS011;75409;50.000;9.432;2024-02-16T10:33:57;9.93;;;6.68;;
84893;SDS011;75409;50.000;9.432;2024-02-16T10:36:26;11.70;;;8.65;;
84893;SDS011;75409;50.000;9.432;2024-02-16T10:38:55;45.60;;;25.65;;
84893;SDS011;75409;50.000;9.432;2024-02-16T10:41:23;38.63;;;26.13;;
84893;SDS011;75409;50.000;9.432;2024-02-16T10:43:52;26.58;;;20.23;;
84893;SDS011;75409;50.000;9.432;2024-02-16T10:46:19;28.33;;;17.25;;
84893;SDS011;75409;50.000;9.432;2024-02-16T10:48:45;21.90;;;15.73;;
84893;SDS011;75409;50.000;9.432;2024-02-16T10:51:10;13.65;;;10.93;;
84893;SDS011;75409;50.000;9.432;2024-02-16T10:53:36;10.52;;;7.10;;
84893;SDS011;75409;50.000;9.432;2024-02-16T10:56:02;10.38;;;5.43;;
84893;SDS011;75409;50.000;9.432;2024-02-16T10:58:28;14.02;;;8.40;;
84893;SDS011;75409;50.000;9.432;2024-02-16T11:00:55;10.27;;;6.22;;
84893;SDS011;75409;50.000;9.432;2024-02-16T11:03:22;9.10;;;6.35;;
84893;SDS011;75409;50.000;9.432;2024-02-16T11:05:49;9.63;;;5.97;;
84893;SDS011;75409;50.000;9.432;2024-02-16T11:08:18;7.38;;;4.18;;
84893;SDS011;75409;50.000;9.432;2024-02-16T11:10:54;4.30;;;2.63;;
84893;SDS011;75409;50.000;9.432;2024-02-16T11:13:23;3.70;;;2.25;;
84893;SDS011;75409;50.000;9.432;2024-02-16T11:16:08;5.43;;;2.28;;
84893;SDS011;75409;50.000;9.432;2024-02-16T11:18:38;6.82;;;4.47;;
84893;SDS011;75409;50.000;9.432;2024-02-16T11:21:05;6.13;;;4.10;;
84893;SDS011;75409;50.000;9.432;2024-02-16T11:23:32;5.53;;;2.67;;
84893;SDS011;75409;50.000;9.432;2024-02-16T11:26:00;122.38;;;62.70;;
84893;SDS011;75409;50.000;9.432;2024-02-16T11:28:28;50.80;;;29.52;;
84893;SDS011;75409;50.000;9.432;2024-02-16T11:30:55;5.05;;;2.63;;
84893;SDS011;75409;50.000;9.432;2024-02-16T11:33:21;3.42;;;2.15;;
84893;SDS011;75409;50.000;9.432;2024-02-16T11:35:54;3.22;;;1.98;;
84893;SDS011;75409;50.000;9.432;2024-02-16T11:38:20;7.10;;;2.72;;
84893;SDS011;75409;50.000;9.432;2024-02-16T11:40:52;6.15;;;4.05;;
84893;SDS011;75409;50.000;9.432;2024-02-16T11:43:20;7.80;;;2.55;;
84893;SDS011;75409;50.000;9.432;2024-02-16T11:45:48;5.00;;;2.25;;
84893;SDS011;75409;50.000;9.432;2024-02-16T11:48:18;6.95;;;2.28;;
84893;SDS011;75409;50.000;9.432;2024-02-16T11:51:00;4.68;;;2.40;;
84893;SDS011;75409;50.000;9.432;2024-02-16T11:53:27;5.97;;;2.17;;
84893;SDS011;75409;50.000;9.432;2024-02-16T11:55:53;6.72;;;2.88;;
84893;SDS011;75409;50.000;9.432;2024-02-16T11:58:19;5.80;;;2.42;;
84893;SDS011;75409;50.000;9.432;2024-02-16T12:00:45;3.38;;;1.95;;
84893;SDS011;75409;50.000;9.432;2024-02-16T12:03:17;4.40;;;2.22;;
84893;SDS011;75409;50.000;9.432;2024-02-16T12:05:53;6.25;;;2.78;;
84893;SDS011;75409;50.000;9.432;2024-02-16T12:08:20;4.18;;;2.50;;
84893;SDS011;75409;50.000;9.432;2024-02-16T12:10:47;5.15;;;2.03;;
84893;SDS011;75409;50.000;9.432;2024-02-16T12:13:16;3.55;;;2.38;;
84893;SDS011;75409;50.000;9.432;2024-02-16T12:15:43;5.35;;;2.50;;
84893;SDS011;75409;50.000;9.432;2024-02-16T12:18:22;7.30;;;3.83;;
84893;SDS011;75409;50.000;9.432;2024-02-16T12:21:05;8.35;;;4.35;;
84893;SDS011;75409;50.000;9.432;2024-02-16T12:23:33;7.05;;;4.75;;
84893;SDS011;75409;50.000;9.432;2024-02-16T12:25:59;5.53;;;3.72;;
84893;SDS011;75409;50.000;9.432;2024-02-16T12:28:25;4.00;;;2.20;;
84893;SDS011;75409;50.000;9.432;2024-02-16T12:30:53;4.13;;;2.40;;
84893;SDS011;75409;50.000;9.432;2024-02-16T12:33:19;3.80;;;2.55;;
84893;SDS011;75409;50.000;9.432;2024-02-16T12:35:45;3.97;;;1.98;;
84893;SDS011;75409;50.000;9.432;2024-02-16T12:38:11;4.93;;;2.20;;
84893;SDS011;75409;50.000;9.432;2024-02-16T12:40:36;5.53;;;2.40;;
84893;SDS011;75409;50.000;9.432;2024-02-16T12:43:02;5.43;;;2.58;;
84893;SDS011;75409;50.000;9.432;2024-02-16T12:45:28;5.38;;;2.28;;
84893;SDS011;75409;50.000;9.432;2024-02-16T12:47:53;4.97;;;2.55;;
84893;SDS011;75409;50.000;9.432;2024-02-16T12:50:19;5.75;;;2.72;;
84893;SDS011;75409;50.000;9.432;2024-02-16T12:52:44;3.78;;;2.20;;
84893;SDS011;75409;50.000;9.432;2024-02-16T12:55:10;5.47;;;3.00;;
84893;SDS011;75409;50.000;9.432;2024-02-16T12:57:36;6.13;;;2.45;;
84893;SDS011;75409;50.000;9.432;2024-02-16T13:00:01;4.18;;;2.45;;
84893;SDS011;75409;50.000;9.432;2024-02-16T13:02:27;3.75;;;2.67;;
84893;SDS011;75409;50.000;9.432;2024-02-16T13:04:54;6.22;;;2.30;;
84893;SDS011;75409;50.000;9.432;2024-02-16T13:07:20;6.30;;;2.78;;
84893;SDS011;75409;50.000;9.432;2024-02-16T13:09:47;7.75;;;3.00;;
84893;SDS011;75409;50.000;9.432;2024-02-16T13:12:18;5.20;;;2.45;;
84893;SDS011;75409;50.000;9.432;2024-02-16T13:14:45;5.43;;;2.80;;
84893;SDS011;75409;50.000;9.432;2024-02-16T13:17:11;7.57;;;3.42;;
84893;SDS011;75409;50.000;9.432;2024-02-16T13:19:37;4.55;;;2.53;;
84893;SDS011;75409;50.000;9.432;2024-02-16T13:22:03;6.07;;;2.97;;
84893;SDS011;75409;50.000;9.432;2024-02-16T13:24:29;3.80;;;2.22;;
84893;SDS011;75409;50.000;9.432;2024-02-16T13:26:54;4.13;;;2.88;;
84893;SDS011;75409;50.000;9.432;2024-02-16T13:29:21;6.88;;;3.40;;
84893;SDS011;75409;50.000;9.432;2024-02-16T13:31:46;7.07;;;2.92;;
84893;SDS011;75409;50.000;9.432;2024-02-16T13:34:14;6.57;;;3.20;;
84893;SDS011;75409;50.000;9.432;2024-02-16T13:36:40;7.03;;;2.70;;
84893;SDS011;75409;50.000;9.432;2024-02-16T13:39:06;7.22;;;2.65;;
84893;SDS011;75409;50.000;9.432;2024-02-16T13:41:32;6.25;;;3.65;;
84893;SDS011;75409;50.000;9.432;2024-02-16T13:43:58;6.53;;;3.50;;
84893;SDS011;75409;50.000;9.432;2024-02-16T13:46:23;6.70;;;3.67;;
84893;SDS011;75409;50.000;9.432;2024-02-16T13:48:49;5.78;;;2.75;;
84893;SDS011;75409;50.000;9.432;2024-02-16T13:51:16;7.32;;;2.70;;
84893;SDS011;75409;50.000;9.432;2024-02-16T13:53:44;5.35;;;3.20;;
84893;SDS011;75409;50.000;9.432;2024-02-16T13:56:09;5.35;;;3.03;;
84893;SDS011;75409;50.000;9.432;2024-02-16T13:58:35;4.80;;;3.15;;
84893;SDS011;75409;50.000;9.432;2024-02-16T14:01:02;7.65;;;2.90;;
84893;SDS011;75409;50.000;9.432;2024-02-16T14:03:30;4.07;;;2.35;;
84893;SDS011;75409;50.000;9.432;2024-02-16T14:05:56;5.95;;;3.00;;
84893;SDS011;75409;50.000;9.432;2024-02-16T14:08:21;9.38;;;2.70;;
84893;SDS011;75409;50.000;9.432;2024-02-16T14:10:47;8.00;;;4.30;;
84893;SDS011;75409;50.000;9.432;2024-02-16T14:13:13;8.05;;;3.17;;
84893;SDS011;75409;50.000;9.432;2024-02-16T14:15:38;6.28;;;3.25;;
84893;SDS011;75409;50.000;9.432;2024-02-16T14:18:04;5.03;;;2.72;;
84893;SDS011;75409;50.000;9.432;2024-02-16T14:20:31;6.28;;;3.40;;
84893;SDS011;75409;50.000;9.432;2024-02-16T14:22:57;6.80;;;2.80;;
84893;SDS011;75409;50.000;9.432;2024-02-16T14:25:22;5.70;;;2.53;;
84893;SDS011;75409;50.000;9.432;2024-02-16T14:27:49;5.32;;;2.70;;
84893;SDS011;75409;50.000;9.432;2024-02-16T14:30:14;6.20;;;3.58;;
84893;SDS011;75409;50.000;9.432;2024-02-16T14:32:40;6.53;;;3.00;;
84893;SDS011;75409;50.000;9.432;2024-02-16T14:35:06;4.85;;;3.30;;
84893;SDS011;75409;50.000;9.432;2024-02-16T14:37:34;6.38;;;3.58;;
84893;SDS011;75409;50.000;9.432;2024-02-16T14:40:00;6.63;;;2.55;;
84893;SDS011;75409;50.000;9.432;2024-02-16T14:42:26;6.68;;;3.30;;
84893;SDS011;75409;50.000;9.432;2024-02-16T14:44:52;5.30;;;3.03;;